Amber Beverly — VRHK5 — position and weather

sailwx.info

Track history (hours):
 
Tides and Currents Weather Stations Pressure Air Temp Water Temp Dewpoint Dewpoint Depression Visibility Wind Speed Wind Dir Waves Ship Positions

Amber Beverly

Last reported at 2015-May-27 13:22 UTC. Time now 2015-May-29 06:15 UTC.
Position N 01°09' E 103°43'.

Length 190 m; draft 12.5 m.

Type: Cargo ship. MMSI: 477317100.

Date/timePositionNaut miles runAvg speedWind from/ knotsBaromVisibWave heightAir tempDewpointWater temp
2015-May-27 13:22N 01°09' E 103°43'1011.3
2015-May-27 12:32N 01°12' E 103°52'6 6.2
2015-May-27 11:32N 01°16' E 103°57'0 0.1
2015-May-27 10:28N 01°17' E 103°57'0 0.0
2015-May-27 08:31N 01°17' E 103°57'0 0.0
2015-May-27 03:07N 01°17' E 103°57'1 0.9
2015-May-27 02:24N 01°16' E 103°57'  
2015-May-20 00:15N 28°55' E 122°42'2212.3
2015-May-19 22:29N 29°14' E 122°54'1513.1
2015-May-19 21:21N 29°27' E 123°01'5212.4
2015-May-19 17:08N 30°17' E 123°19'811.5
2015-May-19 16:25N 30°26' E 123°20'1111.3
2015-May-19 15:25N 30°37' E 123°20'1110.7
2015-May-19 14:22N 30°48' E 123°20'1011.1
2015-May-19 13:28N 30°58' E 123°20'1111.9
2015-May-19 12:33N 31°09' E 123°20'1312.3
2015-May-19 11:32N 31°22' E 123°20'1413.7
2015-May-19 10:33N 31°35' E 123°21'1414.4
2015-May-19 09:33N 31°49' E 123°21'1413.9
2015-May-19 08:33N 32°03' E 123°21'1812.8
2015-May-19 07:11N 32°21' E 123°22'1211.4
2015-May-19 06:09N 32°33' E 123°21'711.9
2015-May-19 05:33N 32°40' E 123°20'1611.1
2015-May-19 04:10N 32°55' E 123°20'9712.6
2015-May-18 20:27N 34°32' E 123°11'9512.0
2015-May-18 12:33N 36°05' E 122°48'2512.5
2015-May-18 10:31N 36°30' E 122°42'1111.1
2015-May-18 09:31N 36°42' E 122°43'1010.8
2015-May-18 08:33N 36°52' E 122°45'1111.2
2015-May-18 07:33N 37°03' E 122°46'1211.8
2015-May-18 06:33N 37°15' E 122°46'1312.9
2015-May-18 05:33N 37°28' E 122°44'1413.6
2015-May-18 04:33N 37°39' E 122°34'1212.1
2015-May-18 03:33N 37°45' E 122°21'  
Track history (hours):
 
Tides and Currents Weather Stations Pressure Air Temp Water Temp Dewpoint Dewpoint Depression Visibility Wind Speed Wind Dir Waves Ship Positions

Amber Beverly

Last reported at 2015-May-27 13:22 UTC. Time now 2015-May-29 06:15 UTC.
Position N 01°09' E 103°43'.

Length 190 m; draft 12.5 m.

Type: Cargo ship. MMSI: 477317100.

Date/timePositionNaut miles runAvg speedWind from/ knotsBaromVisibWave heightAir tempDewpointWater temp
2015-May-27 13:22N 01°09' E 103°43'1011.3
2015-May-27 12:32N 01°12' E 103°52'6 6.2
2015-May-27 11:32N 01°16' E 103°57'0 0.1
2015-May-27 10:28N 01°17' E 103°57'0 0.0
2015-May-27 08:31N 01°17' E 103°57'0 0.0
2015-May-27 03:07N 01°17' E 103°57'1 0.9
2015-May-27 02:24N 01°16' E 103°57'  
2015-May-20 00:15N 28°55' E 122°42'2212.3
2015-May-19 22:29N 29°14' E 122°54'1513.1
2015-May-19 21:21N 29°27' E 123°01'5212.4
2015-May-19 17:08N 30°17' E 123°19'811.5
2015-May-19 16:25N 30°26' E 123°20'1111.3
2015-May-19 15:25N 30°37' E 123°20'1110.7
2015-May-19 14:22N 30°48' E 123°20'1011.1
2015-May-19 13:28N 30°58' E 123°20'1111.9
2015-May-19 12:33N 31°09' E 123°20'1312.3
2015-May-19 11:32N 31°22' E 123°20'1413.7
2015-May-19 10:33N 31°35' E 123°21'1414.4
2015-May-19 09:33N 31°49' E 123°21'1413.9
2015-May-19 08:33N 32°03' E 123°21'1812.8
2015-May-19 07:11N 32°21' E 123°22'1211.4
2015-May-19 06:09N 32°33' E 123°21'711.9
2015-May-19 05:33N 32°40' E 123°20'1611.1
2015-May-19 04:10N 32°55' E 123°20'9712.6
2015-May-18 20:27N 34°32' E 123°11'9512.0
2015-May-18 12:33N 36°05' E 122°48'2512.5
2015-May-18 10:31N 36°30' E 122°42'1111.1
2015-May-18 09:31N 36°42' E 122°43'1010.8
2015-May-18 08:33N 36°52' E 122°45'1111.2
2015-May-18 07:33N 37°03' E 122°46'1211.8
2015-May-18 06:33N 37°15' E 122°46'1312.9
2015-May-18 05:33N 37°28' E 122°44'1413.6
2015-May-18 04:33N 37°39' E 122°34'1212.1
2015-May-18 03:33N 37°45' E 122°21'  

Dump ship's entire track history